sensor_id;sensor_type;location;lat;lon;timestamp;P1;durP1;ratioP1;P2;durP2;ratioP2
6135;SDS011;24008;42.664;23.372;2023-02-28T00:00:17;34.17;;;18.07;;
6135;SDS011;24008;42.664;23.372;2023-02-28T00:02:45;33.27;;;18.33;;
6135;SDS011;24008;42.664;23.372;2023-02-28T00:05:13;31.67;;;17.57;;
6135;SDS011;24008;42.664;23.372;2023-02-28T00:07:41;34.20;;;18.00;;
6135;SDS011;24008;42.664;23.372;2023-02-28T00:10:11;33.90;;;19.23;;
6135;SDS011;24008;42.664;23.372;2023-02-28T00:12:38;33.70;;;18.87;;
6135;SDS011;24008;42.664;23.372;2023-02-28T00:15:06;36.20;;;19.23;;
6135;SDS011;24008;42.664;23.372;2023-02-28T00:17:35;37.67;;;20.07;;
6135;SDS011;24008;42.664;23.372;2023-02-28T00:20:04;36.33;;;19.37;;
6135;SDS011;24008;42.664;23.372;2023-02-28T00:22:33;33.47;;;19.63;;
6135;SDS011;24008;42.664;23.372;2023-02-28T00:25:00;40.20;;;20.23;;
6135;SDS011;24008;42.664;23.372;2023-02-28T00:27:28;34.83;;;18.87;;
6135;SDS011;24008;42.664;23.372;2023-02-28T00:29:55;36.73;;;18.90;;
6135;SDS011;24008;42.664;23.372;2023-02-28T00:32:22;36.37;;;19.43;;
6135;SDS011;24008;42.664;23.372;2023-02-28T00:34:49;33.57;;;18.37;;
6135;SDS011;24008;42.664;23.372;2023-02-28T00:37:16;35.93;;;19.13;;
6135;SDS011;24008;42.664;23.372;2023-02-28T00:39:43;32.03;;;18.33;;
6135;SDS011;24008;42.664;23.372;2023-02-28T00:42:10;35.83;;;19.30;;
6135;SDS011;24008;42.664;23.372;2023-02-28T00:44:38;34.70;;;19.43;;
6135;SDS011;24008;42.664;23.372;2023-02-28T00:47:05;36.57;;;20.43;;
6135;SDS011;24008;42.664;23.372;2023-02-28T00:49:32;36.50;;;18.90;;
6135;SDS011;24008;42.664;23.372;2023-02-28T00:51:59;39.50;;;20.37;;
6135;SDS011;24008;42.664;23.372;2023-02-28T00:54:26;41.67;;;22.23;;
6135;SDS011;24008;42.664;23.372;2023-02-28T00:56:52;37.47;;;21.67;;
6135;SDS011;24008;42.664;23.372;2023-02-28T00:59:19;37.87;;;21.63;;
6135;SDS011;24008;42.664;23.372;2023-02-28T01:01:47;42.07;;;23.10;;
6135;SDS011;24008;42.664;23.372;2023-02-28T01:04:14;40.30;;;22.97;;
6135;SDS011;24008;42.664;23.372;2023-02-28T01:06:41;44.30;;;23.47;;
6135;SDS011;24008;42.664;23.372;2023-02-28T01:09:09;43.70;;;22.80;;
6135;SDS011;24008;42.664;23.372;2023-02-28T01:11:36;41.27;;;22.80;;
6135;SDS011;24008;42.664;23.372;2023-02-28T01:14:05;42.33;;;22.37;;
6135;SDS011;24008;42.664;23.372;2023-02-28T01:16:32;40.40;;;21.60;;
6135;SDS011;24008;42.664;23.372;2023-02-28T01:19:00;40.13;;;21.60;;
6135;SDS011;24008;42.664;23.372;2023-02-28T01:21:27;42.00;;;22.47;;
6135;SDS011;24008;42.664;23.372;2023-02-28T01:23:55;39.50;;;22.37;;
6135;SDS011;24008;42.664;23.372;2023-02-28T01:26:23;43.80;;;22.90;;
6135;SDS011;24008;42.664;23.372;2023-02-28T01:28:50;45.77;;;22.83;;
6135;SDS011;24008;42.664;23.372;2023-02-28T01:31:19;40.80;;;22.53;;
6135;SDS011;24008;42.664;23.372;2023-02-28T01:33:46;39.27;;;21.10;;
6135;SDS011;24008;42.664;23.372;2023-02-28T01:36:17;42.00;;;23.03;;
6135;SDS011;24008;42.664;23.372;2023-02-28T01:38:45;43.40;;;22.10;;
6135;SDS011;24008;42.664;23.372;2023-02-28T01:41:15;40.27;;;22.23;;
6135;SDS011;24008;42.664;23.372;2023-02-28T01:43:56;41.57;;;22.10;;
6135;SDS011;24008;42.664;23.372;2023-02-28T01:46:28;43.57;;;22.10;;
6135;SDS011;24008;42.664;23.372;2023-02-28T01:48:57;41.10;;;22.70;;
6135;SDS011;24008;42.664;23.372;2023-02-28T01:51:30;47.90;;;25.40;;
6135;SDS011;24008;42.664;23.372;2023-02-28T01:54:02;45.20;;;23.70;;
6135;SDS011;24008;42.664;23.372;2023-02-28T01:56:32;42.57;;;23.93;;
6135;SDS011;24008;42.664;23.372;2023-02-28T01:59:02;43.63;;;23.77;;
6135;SDS011;24008;42.664;23.372;2023-02-28T02:01:29;42.00;;;22.57;;
6135;SDS011;24008;42.664;23.372;2023-02-28T02:03:58;42.93;;;23.53;;
6135;SDS011;24008;42.664;23.372;2023-02-28T02:06:28;41.73;;;22.73;;
6135;SDS011;24008;42.664;23.372;2023-02-28T02:09:00;45.73;;;23.20;;
6135;SDS011;24008;42.664;23.372;2023-02-28T02:11:27;42.73;;;23.50;;
6135;SDS011;24008;42.664;23.372;2023-02-28T02:14:00;41.97;;;23.57;;
6135;SDS011;24008;42.664;23.372;2023-02-28T02:16:39;41.53;;;23.47;;
6135;SDS011;24008;42.664;23.372;2023-02-28T02:19:22;40.33;;;22.40;;
6135;SDS011;24008;42.664;23.372;2023-02-28T02:22:20;44.33;;;23.77;;
6135;SDS011;24008;42.664;23.372;2023-02-28T02:25:08;40.83;;;23.30;;
6135;SDS011;24008;42.664;23.372;2023-02-28T02:27:48;44.60;;;23.80;;
6135;SDS011;24008;42.664;23.372;2023-02-28T02:36:29;51.93;;;24.83;;
6135;SDS011;24008;42.664;23.372;2023-02-28T02:39:00;47.90;;;25.77;;
6135;SDS011;24008;42.664;23.372;2023-02-28T02:41:33;56.10;;;26.40;;
6135;SDS011;24008;42.664;23.372;2023-02-28T02:44:06;52.90;;;25.73;;
6135;SDS011;24008;42.664;23.372;2023-02-28T02:46:41;50.67;;;26.07;;
6135;SDS011;24008;42.664;23.372;2023-02-28T02:49:13;53.23;;;25.97;;
6135;SDS011;24008;42.664;23.372;2023-02-28T02:51:44;55.57;;;27.10;;
6135;SDS011;24008;42.664;23.372;2023-02-28T02:54:14;48.77;;;25.63;;
6135;SDS011;24008;42.664;23.372;2023-02-28T02:56:45;47.83;;;24.93;;
6135;SDS011;24008;42.664;23.372;2023-02-28T02:59:15;49.07;;;26.00;;
6135;SDS011;24008;42.664;23.372;2023-02-28T03:01:46;49.37;;;26.07;;
6135;SDS011;24008;42.664;23.372;2023-02-28T03:04:18;45.60;;;24.70;;
6135;SDS011;24008;42.664;23.372;2023-02-28T03:06:50;52.73;;;27.17;;
6135;SDS011;24008;42.664;23.372;2023-02-28T03:09:19;58.03;;;26.53;;
6135;SDS011;24008;42.664;23.372;2023-02-28T03:11:46;56.23;;;27.83;;
6135;SDS011;24008;42.664;23.372;2023-02-28T03:17:11;54.90;;;27.63;;
6135;SDS011;24008;42.664;23.372;2023-02-28T03:20:01;58.03;;;28.80;;
6135;SDS011;24008;42.664;23.372;2023-02-28T03:25:27;68.53;;;32.70;;
6135;SDS011;24008;42.664;23.372;2023-02-28T03:28:19;62.40;;;30.50;;
6135;SDS011;24008;42.664;23.372;2023-02-28T03:30:58;74.97;;;33.53;;
6135;SDS011;24008;42.664;23.372;2023-02-28T03:33:30;69.73;;;33.43;;
6135;SDS011;24008;42.664;23.372;2023-02-28T03:36:05;75.97;;;35.47;;
6135;SDS011;24008;42.664;23.372;2023-02-28T03:38:40;70.40;;;33.60;;
6135;SDS011;24008;42.664;23.372;2023-02-28T03:41:12;67.77;;;31.03;;
6135;SDS011;24008;42.664;23.372;2023-02-28T03:43:44;72.03;;;30.83;;
6135;SDS011;24008;42.664;23.372;2023-02-28T03:46:18;70.03;;;31.07;;
6135;SDS011;24008;42.664;23.372;2023-02-28T03:48:48;69.90;;;31.03;;
6135;SDS011;24008;42.664;23.372;2023-02-28T03:51:19;80.57;;;32.00;;
6135;SDS011;24008;42.664;23.372;2023-02-28T03:53:52;72.30;;;31.40;;
6135;SDS011;24008;42.664;23.372;2023-02-28T03:56:24;65.87;;;30.40;;
6135;SDS011;24008;42.664;23.372;2023-02-28T03:58:58;66.23;;;30.43;;
6135;SDS011;24008;42.664;23.372;2023-02-28T04:01:33;65.93;;;29.70;;
6135;SDS011;24008;42.664;23.372;2023-02-28T04:04:06;103.93;;;28.87;;
6135;SDS011;24008;42.664;23.372;2023-02-28T04:06:33;79.83;;;29.17;;
6135;SDS011;24008;42.664;23.372;2023-02-28T04:09:02;97.07;;;31.43;;
6135;SDS011;24008;42.664;23.372;2023-02-28T04:11:32;61.97;;;29.13;;
6135;SDS011;24008;42.664;23.372;2023-02-28T04:14:01;72.20;;;30.20;;
6135;SDS011;24008;42.664;23.372;2023-02-28T04:16:28;72.33;;;28.93;;
6135;SDS011;24008;42.664;23.372;2023-02-28T04:18:55;76.30;;;29.80;;
6135;SDS011;24008;42.664;23.372;2023-02-28T04:21:27;90.33;;;31.37;;
6135;SDS011;24008;42.664;23.372;2023-02-28T04:23:54;76.03;;;31.97;;
6135;SDS011;24008;42.664;23.372;2023-02-28T04:26:22;78.30;;;31.13;;
6135;SDS011;24008;42.664;23.372;2023-02-28T04:28:49;72.40;;;30.50;;
6135;SDS011;24008;42.664;23.372;2023-02-28T04:31:15;67.83;;;27.43;;
6135;SDS011;24008;42.664;23.372;2023-02-28T04:33:42;64.77;;;29.27;;
6135;SDS011;24008;42.664;23.372;2023-02-28T04:36:09;72.87;;;30.50;;
6135;SDS011;24008;42.664;23.372;2023-02-28T04:38:36;83.53;;;30.03;;
6135;SDS011;24008;42.664;23.372;2023-02-28T04:41:04;70.03;;;30.90;;
6135;SDS011;24008;42.664;23.372;2023-02-28T04:43:33;73.07;;;31.43;;
6135;SDS011;24008;42.664;23.372;2023-02-28T04:46:01;70.83;;;30.27;;
6135;SDS011;24008;42.664;23.372;2023-02-28T04:48:30;78.57;;;29.93;;
6135;SDS011;24008;42.664;23.372;2023-02-28T04:50:59;102.87;;;32.03;;
6135;SDS011;24008;42.664;23.372;2023-02-28T04:53:27;150.37;;;35.20;;
6135;SDS011;24008;42.664;23.372;2023-02-28T04:55:54;109.77;;;35.27;;
6135;SDS011;24008;42.664;23.372;2023-02-28T04:58:21;122.43;;;36.83;;
6135;SDS011;24008;42.664;23.372;2023-02-28T05:00:50;121.50;;;39.43;;
6135;SDS011;24008;42.664;23.372;2023-02-28T05:03:17;109.10;;;42.37;;
6135;SDS011;24008;42.664;23.372;2023-02-28T05:05:43;120.33;;;42.40;;
6135;SDS011;24008;42.664;23.372;2023-02-28T05:08:10;142.97;;;44.37;;
6135;SDS011;24008;42.664;23.372;2023-02-28T05:10:37;135.03;;;44.57;;
6135;SDS011;24008;42.664;23.372;2023-02-28T05:13:03;124.67;;;44.90;;
6135;SDS011;24008;42.664;23.372;2023-02-28T05:15:30;137.17;;;47.47;;
6135;SDS011;24008;42.664;23.372;2023-02-28T05:17:58;132.30;;;50.97;;
6135;SDS011;24008;42.664;23.372;2023-02-28T05:20:25;119.07;;;43.53;;
6135;SDS011;24008;42.664;23.372;2023-02-28T05:22:52;97.77;;;38.97;;
6135;SDS011;24008;42.664;23.372;2023-02-28T05:25:20;104.03;;;39.33;;
6135;SDS011;24008;42.664;23.372;2023-02-28T05:27:47;100.27;;;37.53;;
6135;SDS011;24008;42.664;23.372;2023-02-28T05:30:15;97.40;;;37.60;;
6135;SDS011;24008;42.664;23.372;2023-02-28T05:32:42;89.80;;;36.23;;
6135;SDS011;24008;42.664;23.372;2023-02-28T05:35:10;90.20;;;36.30;;
6135;SDS011;24008;42.664;23.372;2023-02-28T05:37:38;90.70;;;37.43;;
6135;SDS011;24008;42.664;23.372;2023-02-28T05:40:05;92.40;;;36.77;;
6135;SDS011;24008;42.664;23.372;2023-02-28T05:42:35;86.03;;;37.27;;
6135;SDS011;24008;42.664;23.372;2023-02-28T05:45:02;94.50;;;36.20;;
6135;SDS011;24008;42.664;23.372;2023-02-28T05:47:29;116.63;;;38.63;;
6135;SDS011;24008;42.664;23.372;2023-02-28T05:49:56;99.73;;;37.43;;
6135;SDS011;24008;42.664;23.372;2023-02-28T05:52:24;106.40;;;38.87;;
6135;SDS011;24008;42.664;23.372;2023-02-28T05:54:51;93.93;;;37.20;;
6135;SDS011;24008;42.664;23.372;2023-02-28T05:57:18;114.20;;;38.90;;
6135;SDS011;24008;42.664;23.372;2023-02-28T05:59:45;110.57;;;40.80;;
6135;SDS011;24008;42.664;23.372;2023-02-28T06:02:12;100.90;;;40.73;;
6135;SDS011;24008;42.664;23.372;2023-02-28T06:04:40;104.13;;;41.93;;
6135;SDS011;24008;42.664;23.372;2023-02-28T06:07:07;104.27;;;43.63;;
6135;SDS011;24008;42.664;23.372;2023-02-28T06:09:36;99.30;;;41.83;;
6135;SDS011;24008;42.664;23.372;2023-02-28T06:12:04;99.13;;;42.07;;
6135;SDS011;24008;42.664;23.372;2023-02-28T06:14:35;113.37;;;43.30;;
6135;SDS011;24008;42.664;23.372;2023-02-28T06:17:02;95.77;;;40.60;;
6135;SDS011;24008;42.664;23.372;2023-02-28T06:19:29;95.80;;;42.00;;
6135;SDS011;24008;42.664;23.372;2023-02-28T06:21:56;82.57;;;36.43;;
6135;SDS011;24008;42.664;23.372;2023-02-28T06:24:24;79.07;;;37.03;;
6135;SDS011;24008;42.664;23.372;2023-02-28T06:26:54;83.60;;;38.00;;
6135;SDS011;24008;42.664;23.372;2023-02-28T06:29:21;85.13;;;37.77;;
6135;SDS011;24008;42.664;23.372;2023-02-28T06:31:48;97.30;;;38.67;;
6135;SDS011;24008;42.664;23.372;2023-02-28T06:34:15;92.60;;;38.53;;
6135;SDS011;24008;42.664;23.372;2023-02-28T06:36:42;84.53;;;38.43;;
6135;SDS011;24008;42.664;23.372;2023-02-28T06:39:09;82.13;;;36.23;;
6135;SDS011;24008;42.664;23.372;2023-02-28T06:41:36;80.73;;;36.83;;
6135;SDS011;24008;42.664;23.372;2023-02-28T06:44:08;82.63;;;38.53;;
6135;SDS011;24008;42.664;23.372;2023-02-28T06:46:38;70.07;;;36.60;;
6135;SDS011;24008;42.664;23.372;2023-02-28T06:49:05;72.77;;;36.67;;
6135;SDS011;24008;42.664;23.372;2023-02-28T06:51:34;68.73;;;34.80;;
6135;SDS011;24008;42.664;23.372;2023-02-28T06:54:01;66.73;;;33.67;;
6135;SDS011;24008;42.664;23.372;2023-02-28T06:56:29;66.77;;;33.60;;
6135;SDS011;24008;42.664;23.372;2023-02-28T06:58:55;68.77;;;34.40;;
6135;SDS011;24008;42.664;23.372;2023-02-28T07:01:23;71.37;;;35.03;;
6135;SDS011;24008;42.664;23.372;2023-02-28T07:03:50;61.07;;;32.40;;
6135;SDS011;24008;42.664;23.372;2023-02-28T07:06:18;62.37;;;31.97;;
6135;SDS011;24008;42.664;23.372;2023-02-28T07:08:45;62.60;;;31.70;;
6135;SDS011;24008;42.664;23.372;2023-02-28T07:11:12;66.13;;;33.37;;
6135;SDS011;24008;42.664;23.372;2023-02-28T07:13:39;60.70;;;32.50;;
6135;SDS011;24008;42.664;23.372;2023-02-28T07:16:07;62.80;;;33.97;;
6135;SDS011;24008;42.664;23.372;2023-02-28T07:18:38;65.27;;;36.23;;
6135;SDS011;24008;42.664;23.372;2023-02-28T07:21:07;66.83;;;36.50;;
6135;SDS011;24008;42.664;23.372;2023-02-28T07:23:35;72.93;;;35.67;;
6135;SDS011;24008;42.664;23.372;2023-02-28T07:26:03;64.83;;;34.13;;
6135;SDS011;24008;42.664;23.372;2023-02-28T07:28:30;58.43;;;32.63;;
6135;SDS011;24008;42.664;23.372;2023-02-28T07:30:56;64.60;;;35.30;;
6135;SDS011;24008;42.664;23.372;2023-02-28T07:33:28;58.67;;;33.23;;
6135;SDS011;24008;42.664;23.372;2023-02-28T07:36:01;54.87;;;29.40;;
6135;SDS011;24008;42.664;23.372;2023-02-28T07:38:28;57.53;;;32.03;;
6135;SDS011;24008;42.664;23.372;2023-02-28T07:40:54;54.10;;;31.47;;
6135;SDS011;24008;42.664;23.372;2023-02-28T07:43:21;55.37;;;31.93;;
6135;SDS011;24008;42.664;23.372;2023-02-28T07:45:48;56.87;;;30.57;;
6135;SDS011;24008;42.664;23.372;2023-02-28T07:48:15;60.57;;;28.93;;
6135;SDS011;24008;42.664;23.372;2023-02-28T07:50:42;51.90;;;29.57;;
6135;SDS011;24008;42.664;23.372;2023-02-28T07:53:10;47.53;;;28.50;;
6135;SDS011;24008;42.664;23.372;2023-02-28T07:55:37;48.23;;;27.27;;
6135;SDS011;24008;42.664;23.372;2023-02-28T07:58:18;49.07;;;27.70;;
6135;SDS011;24008;42.664;23.372;2023-02-28T08:00:45;53.13;;;29.33;;
6135;SDS011;24008;42.664;23.372;2023-02-28T08:03:12;52.03;;;28.53;;
6135;SDS011;24008;42.664;23.372;2023-02-28T08:05:39;53.63;;;28.17;;
6135;SDS011;24008;42.664;23.372;2023-02-28T08:08:06;47.47;;;26.43;;
6135;SDS011;24008;42.664;23.372;2023-02-28T08:10:36;49.67;;;28.10;;
6135;SDS011;24008;42.664;23.372;2023-02-28T08:13:03;52.33;;;27.57;;
6135;SDS011;24008;42.664;23.372;2023-02-28T08:15:30;48.53;;;27.97;;
6135;SDS011;24008;42.664;23.372;2023-02-28T08:17:57;49.70;;;27.57;;
6135;SDS011;24008;42.664;23.372;2023-02-28T08:20:23;50.00;;;27.90;;
6135;SDS011;24008;42.664;23.372;2023-02-28T08:22:50;48.73;;;27.97;;
6135;SDS011;24008;42.664;23.372;2023-02-28T08:25:17;51.73;;;28.90;;
6135;SDS011;24008;42.664;23.372;2023-02-28T08:27:46;47.27;;;24.83;;
6135;SDS011;24008;42.664;23.372;2023-02-28T08:30:13;45.57;;;24.23;;
6135;SDS011;24008;42.664;23.372;2023-02-28T08:32:41;44.70;;;22.90;;
6135;SDS011;24008;42.664;23.372;2023-02-28T08:35:08;48.80;;;24.30;;
6135;SDS011;24008;42.664;23.372;2023-02-28T08:37:35;40.43;;;22.60;;
6135;SDS011;24008;42.664;23.372;2023-02-28T08:40:02;39.47;;;19.10;;
6135;SDS011;24008;42.664;23.372;2023-02-28T08:42:30;40.30;;;20.40;;
6135;SDS011;24008;42.664;23.372;2023-02-28T08:44:59;44.73;;;20.83;;
6135;SDS011;24008;42.664;23.372;2023-02-28T08:47:26;36.67;;;17.93;;
6135;SDS011;24008;42.664;23.372;2023-02-28T08:49:53;33.17;;;17.27;;
6135;SDS011;24008;42.664;23.372;2023-02-28T08:52:19;41.13;;;20.43;;
6135;SDS011;24008;42.664;23.372;2023-02-28T08:54:46;37.20;;;17.03;;
6135;SDS011;24008;42.664;23.372;2023-02-28T08:57:16;36.00;;;16.23;;
6135;SDS011;24008;42.664;23.372;2023-02-28T08:59:42;31.97;;;15.67;;
6135;SDS011;24008;42.664;23.372;2023-02-28T09:02:11;35.73;;;16.83;;
6135;SDS011;24008;42.664;23.372;2023-02-28T09:04:39;32.23;;;15.30;;
6135;SDS011;24008;42.664;23.372;2023-02-28T09:07:06;36.57;;;17.37;;
6135;SDS011;24008;42.664;23.372;2023-02-28T09:09:34;35.23;;;18.30;;
6135;SDS011;24008;42.664;23.372;2023-02-28T09:12:00;31.93;;;16.67;;
6135;SDS011;24008;42.664;23.372;2023-02-28T09:14:27;31.63;;;16.67;;
6135;SDS011;24008;42.664;23.372;2023-02-28T09:16:54;37.80;;;15.30;;
6135;SDS011;24008;42.664;23.372;2023-02-28T09:19:23;35.23;;;18.40;;
6135;SDS011;24008;42.664;23.372;2023-02-28T09:21:50;34.57;;;16.73;;
6135;SDS011;24008;42.664;23.372;2023-02-28T09:24:17;30.57;;;16.90;;
6135;SDS011;24008;42.664;23.372;2023-02-28T09:26:45;35.57;;;17.47;;
6135;SDS011;24008;42.664;23.372;2023-02-28T09:29:12;35.70;;;17.40;;
6135;SDS011;24008;42.664;23.372;2023-02-28T09:31:41;32.20;;;16.57;;
6135;SDS011;24008;42.664;23.372;2023-02-28T09:34:08;30.50;;;15.33;;
6135;SDS011;24008;42.664;23.372;2023-02-28T09:36:36;29.97;;;14.90;;
6135;SDS011;24008;42.664;23.372;2023-02-28T09:39:03;34.17;;;14.67;;
6135;SDS011;24008;42.664;23.372;2023-02-28T09:41:32;28.20;;;15.60;;
6135;SDS011;24008;42.664;23.372;2023-02-28T09:44:13;37.13;;;16.80;;
6135;SDS011;24008;42.664;23.372;2023-02-28T09:46:47;32.40;;;14.03;;
6135;SDS011;24008;42.664;23.372;2023-02-28T09:49:16;35.40;;;16.37;;
6135;SDS011;24008;42.664;23.372;2023-02-28T09:51:49;33.17;;;17.33;;
6135;SDS011;24008;42.664;23.372;2023-02-28T09:54:20;36.20;;;15.87;;
6135;SDS011;24008;42.664;23.372;2023-02-28T09:56:50;32.20;;;15.13;;
6135;SDS011;24008;42.664;23.372;2023-02-28T09:59:24;27.37;;;14.57;;
6135;SDS011;24008;42.664;23.372;2023-02-28T10:02:02;29.80;;;15.30;;
6135;SDS011;24008;42.664;23.372;2023-02-28T10:04:42;27.43;;;16.23;;
6135;SDS011;24008;42.664;23.372;2023-02-28T10:07:29;32.60;;;14.30;;
6135;SDS011;24008;42.664;23.372;2023-02-28T10:10:14;23.63;;;13.80;;
6135;SDS011;24008;42.664;23.372;2023-02-28T10:12:46;33.70;;;15.80;;
6135;SDS011;24008;42.664;23.372;2023-02-28T10:15:14;23.03;;;11.13;;
6135;SDS011;24008;42.664;23.372;2023-02-28T10:17:43;28.87;;;12.93;;
6135;SDS011;24008;42.664;23.372;2023-02-28T10:20:17;28.73;;;13.90;;
6135;SDS011;24008;42.664;23.372;2023-02-28T10:22:52;27.63;;;13.80;;
6135;SDS011;24008;42.664;23.372;2023-02-28T10:25:24;24.77;;;13.50;;
6135;SDS011;24008;42.664;23.372;2023-02-28T10:27:52;34.07;;;13.93;;
6135;SDS011;24008;42.664;23.372;2023-02-28T10:30:21;26.13;;;12.07;;
6135;SDS011;24008;42.664;23.372;2023-02-28T10:32:49;22.83;;;13.00;;
6135;SDS011;24008;42.664;23.372;2023-02-28T10:35:19;32.50;;;13.43;;
6135;SDS011;24008;42.664;23.372;2023-02-28T10:37:48;24.13;;;12.77;;
6135;SDS011;24008;42.664;23.372;2023-02-28T10:40:29;23.87;;;12.57;;
6135;SDS011;24008;42.664;23.372;2023-02-28T10:42:59;22.17;;;12.87;;
6135;SDS011;24008;42.664;23.372;2023-02-28T10:45:27;28.07;;;14.33;;
6135;SDS011;24008;42.664;23.372;2023-02-28T10:47:57;26.77;;;12.80;;
6135;SDS011;24008;42.664;23.372;2023-02-28T10:50:30;23.33;;;12.20;;
6135;SDS011;24008;42.664;23.372;2023-02-28T10:53:07;20.73;;;11.60;;
6135;SDS011;24008;42.664;23.372;2023-02-28T10:55:43;27.13;;;13.57;;
6135;SDS011;24008;42.664;23.372;2023-02-28T10:58:20;30.20;;;14.30;;
6135;SDS011;24008;42.664;23.372;2023-02-28T11:00:48;30.43;;;13.23;;
6135;SDS011;24008;42.664;23.372;2023-02-28T11:03:23;29.03;;;14.10;;
6135;SDS011;24008;42.664;23.372;2023-02-28T11:05:51;22.13;;;11.57;;
6135;SDS011;24008;42.664;23.372;2023-02-28T11:08:18;27.93;;;13.07;;
6135;SDS011;24008;42.664;23.372;2023-02-28T11:10:48;29.47;;;14.13;;
6135;SDS011;24008;42.664;23.372;2023-02-28T11:13:21;25.43;;;11.43;;
6135;SDS011;24008;42.664;23.372;2023-02-28T11:15:54;29.73;;;13.23;;
6135;SDS011;24008;42.664;23.372;2023-02-28T11:18:23;24.70;;;14.60;;
6135;SDS011;24008;42.664;23.372;2023-02-28T11:20:55;28.57;;;14.13;;
6135;SDS011;24008;42.664;23.372;2023-02-28T11:23:25;27.00;;;12.73;;
6135;SDS011;24008;42.664;23.372;2023-02-28T11:25:57;24.67;;;13.70;;
6135;SDS011;24008;42.664;23.372;2023-02-28T11:28:27;25.40;;;13.60;;
6135;SDS011;24008;42.664;23.372;2023-02-28T11:31:01;23.43;;;13.23;;
6135;SDS011;24008;42.664;23.372;2023-02-28T11:33:31;33.80;;;12.90;;
6135;SDS011;24008;42.664;23.372;2023-02-28T11:36:09;30.70;;;14.20;;
6135;SDS011;24008;42.664;23.372;2023-02-28T11:38:38;29.10;;;14.30;;
6135;SDS011;24008;42.664;23.372;2023-02-28T11:41:21;29.30;;;14.57;;
6135;SDS011;24008;42.664;23.372;2023-02-28T11:46:57;32.67;;;14.57;;
6135;SDS011;24008;42.664;23.372;2023-02-28T11:49:32;32.80;;;16.47;;
6135;SDS011;24008;42.664;23.372;2023-02-28T11:52:06;33.83;;;15.10;;
6135;SDS011;24008;42.664;23.372;2023-02-28T11:54:51;32.67;;;15.57;;
6135;SDS011;24008;42.664;23.372;2023-02-28T11:57:32;31.77;;;14.10;;
6135;SDS011;24008;42.664;23.372;2023-02-28T12:00:15;25.03;;;12.70;;
6135;SDS011;24008;42.664;23.372;2023-02-28T12:02:55;31.13;;;14.30;;
6135;SDS011;24008;42.664;23.372;2023-02-28T12:05:31;31.50;;;15.87;;
6135;SDS011;24008;42.664;23.372;2023-02-28T12:08:07;30.87;;;14.67;;
6135;SDS011;24008;42.664;23.372;2023-02-28T12:10:52;25.20;;;14.43;;
6135;SDS011;24008;42.664;23.372;2023-02-28T12:13:32;25.90;;;11.43;;
6135;SDS011;24008;42.664;23.372;2023-02-28T12:19:16;35.77;;;16.10;;
6135;SDS011;24008;42.664;23.372;2023-02-28T12:21:50;31.83;;;13.80;;
6135;SDS011;24008;42.664;23.372;2023-02-28T12:24:55;25.43;;;14.37;;
6135;SDS011;24008;42.664;23.372;2023-02-28T12:27:46;29.17;;;14.93;;
6135;SDS011;24008;42.664;23.372;2023-02-28T12:30:16;27.17;;;13.97;;
6135;SDS011;24008;42.664;23.372;2023-02-28T12:32:48;29.03;;;13.90;;
6135;SDS011;24008;42.664;23.372;2023-02-28T12:35:21;29.30;;;14.40;;
6135;SDS011;24008;42.664;23.372;2023-02-28T12:37:52;28.50;;;13.87;;
6135;SDS011;24008;42.664;23.372;2023-02-28T12:40:25;27.70;;;14.73;;
6135;SDS011;24008;42.664;23.372;2023-02-28T12:42:56;31.57;;;15.57;;
6135;SDS011;24008;42.664;23.372;2023-02-28T12:45:27;26.20;;;13.03;;
6135;SDS011;24008;42.664;23.372;2023-02-28T12:48:06;29.07;;;12.77;;
6135;SDS011;24008;42.664;23.372;2023-02-28T12:50:38;31.33;;;13.87;;
6135;SDS011;24008;42.664;23.372;2023-02-28T12:53:06;27.53;;;12.90;;
6135;SDS011;24008;42.664;23.372;2023-02-28T12:55:40;23.53;;;13.60;;
6135;SDS011;24008;42.664;23.372;2023-02-28T12:58:13;28.00;;;13.60;;
6135;SDS011;24008;42.664;23.372;2023-02-28T13:00:53;28.83;;;13.60;;
6135;SDS011;24008;42.664;23.372;2023-02-28T13:03:42;36.97;;;17.43;;
6135;SDS011;24008;42.664;23.372;2023-02-28T13:06:20;32.80;;;15.57;;
6135;SDS011;24008;42.664;23.372;2023-02-28T13:09:08;35.70;;;15.73;;
6135;SDS011;24008;42.664;23.372;2023-02-28T13:11:41;25.23;;;14.10;;
6135;SDS011;24008;42.664;23.372;2023-02-28T13:14:18;19.37;;;10.03;;
6135;SDS011;24008;42.664;23.372;2023-02-28T13:16:56;32.27;;;17.00;;
6135;SDS011;24008;42.664;23.372;2023-02-28T13:19:26;33.40;;;15.93;;
6135;SDS011;24008;42.664;23.372;2023-02-28T13:21:55;29.60;;;15.27;;
6135;SDS011;24008;42.664;23.372;2023-02-28T13:24:42;29.47;;;15.03;;
6135;SDS011;24008;42.664;23.372;2023-02-28T13:27:22;28.77;;;14.67;;
6135;SDS011;24008;42.664;23.372;2023-02-28T13:29:57;22.83;;;11.60;;
6135;SDS011;24008;42.664;23.372;2023-02-28T13:32:30;26.40;;;12.77;;
6135;SDS011;24008;42.664;23.372;2023-02-28T13:35:16;22.77;;;11.90;;
6135;SDS011;24008;42.664;23.372;2023-02-28T13:38:16;26.27;;;12.83;;
6135;SDS011;24008;42.664;23.372;2023-02-28T13:43:59;26.07;;;12.37;;
6135;SDS011;24008;42.664;23.372;2023-02-28T13:46:27;22.67;;;10.60;;
6135;SDS011;24008;42.664;23.372;2023-02-28T13:48:56;23.07;;;11.80;;
6135;SDS011;24008;42.664;23.372;2023-02-28T13:51:28;21.67;;;11.70;;
6135;SDS011;24008;42.664;23.372;2023-02-28T13:54:10;20.43;;;10.07;;
6135;SDS011;24008;42.664;23.372;2023-02-28T13:56:48;23.20;;;11.47;;
6135;SDS011;24008;42.664;23.372;2023-02-28T13:59:28;21.57;;;11.13;;
6135;SDS011;24008;42.664;23.372;2023-02-28T14:05:14;26.27;;;12.17;;
6135;SDS011;24008;42.664;23.372;2023-02-28T14:07:44;23.03;;;10.80;;
6135;SDS011;24008;42.664;23.372;2023-02-28T14:10:21;26.40;;;12.07;;
6135;SDS011;24008;42.664;23.372;2023-02-28T14:12:55;21.10;;;11.37;;
6135;SDS011;24008;42.664;23.372;2023-02-28T14:15:30;26.90;;;11.03;;
6135;SDS011;24008;42.664;23.372;2023-02-28T14:18:21;25.63;;;11.73;;
6135;SDS011;24008;42.664;23.372;2023-02-28T14:20:54;30.87;;;13.10;;
6135;SDS011;24008;42.664;23.372;2023-02-28T14:26:19;24.40;;;11.77;;
6135;SDS011;24008;42.664;23.372;2023-02-28T14:29:07;25.23;;;12.43;;
6135;SDS011;24008;42.664;23.372;2023-02-28T14:31:50;27.43;;;12.77;;
6135;SDS011;24008;42.664;23.372;2023-02-28T14:34:37;25.70;;;11.63;;
6135;SDS011;24008;42.664;23.372;2023-02-28T14:37:13;23.67;;;11.63;;
6135;SDS011;24008;42.664;23.372;2023-02-28T14:39:45;31.10;;;11.40;;
6135;SDS011;24008;42.664;23.372;2023-02-28T14:42:29;28.33;;;12.07;;
6135;SDS011;24008;42.664;23.372;2023-02-28T14:44:58;25.83;;;12.17;;
6135;SDS011;24008;42.664;23.372;2023-02-28T14:47:26;31.10;;;11.40;;
6135;SDS011;24008;42.664;23.372;2023-02-28T14:49:55;20.07;;;10.67;;
6135;SDS011;24008;42.664;23.372;2023-02-28T14:52:23;20.60;;;10.27;;
6135;SDS011;24008;42.664;23.372;2023-02-28T14:54:52;24.37;;;11.40;;
6135;SDS011;24008;42.664;23.372;2023-02-28T14:57:21;22.47;;;11.57;;
6135;SDS011;24008;42.664;23.372;2023-02-28T14:59:56;24.43;;;11.03;;
6135;SDS011;24008;42.664;23.372;2023-02-28T15:02:25;28.00;;;11.10;;
6135;SDS011;24008;42.664;23.372;2023-02-28T15:04:56;30.67;;;12.57;;
6135;SDS011;24008;42.664;23.372;2023-02-28T15:07:26;28.57;;;14.13;;
6135;SDS011;24008;42.664;23.372;2023-02-28T15:12:49;24.17;;;11.40;;